createdAt,value
2022-10-01T00:01:14.621Z,14.27
2022-10-01T00:03:42.710Z,13.67
2022-10-01T00:06:17.544Z,14.83
2022-10-01T00:08:49.357Z,13.97
2022-10-01T00:11:19.874Z,14.80
2022-10-01T00:13:47.701Z,16.13
2022-10-01T00:16:17.822Z,15.53
2022-10-01T00:18:46.829Z,16.37
2022-10-01T00:21:17.172Z,14.83
2022-10-01T00:23:44.431Z,15.43
2022-10-01T00:26:17.168Z,16.03
2022-10-01T00:28:46.877Z,17.10
2022-10-01T00:31:15.946Z,16.33
2022-10-01T00:33:43.276Z,17.73
2022-10-01T00:36:11.217Z,16.90
2022-10-01T00:38:40.330Z,17.80
2022-10-01T00:41:08.161Z,17.57
2022-10-01T00:43:44.993Z,16.20
2022-10-01T00:46:29.387Z,18.53
2022-10-01T00:49:07.206Z,17.67
2022-10-01T00:51:40.202Z,17.40
2022-10-01T00:54:19.067Z,17.40
2022-10-01T00:56:46.829Z,19.30
2022-10-01T00:59:16.469Z,16.37
2022-10-01T01:01:43.494Z,16.70
2022-10-01T01:04:16.447Z,17.40
2022-10-01T01:06:59.529Z,16.90
2022-10-01T01:09:40.101Z,17.23
2022-10-01T01:12:55.051Z,16.77
2022-10-01T01:15:51.053Z,16.43
2022-10-01T01:18:54.799Z,18.50
2022-10-01T01:21:41.407Z,18.33
2022-10-01T01:24:36.030Z,16.70
2022-10-01T01:27:08.271Z,17.63
2022-10-01T01:29:57.938Z,17.20
2022-10-01T01:32:35.477Z,16.37
2022-10-01T01:35:06.905Z,17.27
2022-10-01T01:37:39.208Z,15.43
2022-10-01T01:40:11.305Z,16.77
2022-10-01T01:42:41.545Z,16.60
2022-10-01T01:45:13.709Z,15.37
2022-10-01T01:47:42.221Z,17.80
2022-10-01T01:50:11.694Z,17.87
2022-10-01T01:52:38.649Z,17.07
2022-10-01T01:55:07.511Z,18.00
2022-10-01T01:57:39.178Z,17.27
2022-10-01T02:00:06.584Z,17.90
2022-10-01T02:02:38.084Z,18.60
2022-10-01T02:05:12.337Z,17.30
2022-10-01T02:08:00.499Z,19.23
2022-10-01T02:10:38.996Z,18.43
2022-10-01T02:13:35.203Z,18.23
2022-10-01T02:16:04.551Z,17.97
2022-10-01T02:18:53.642Z,19.77
2022-10-01T02:21:20.457Z,19.87
2022-10-01T02:24:06.806Z,23.07
2022-10-01T02:26:38.156Z,19.87
2022-10-01T02:29:08.801Z,20.63
2022-10-01T02:31:36.473Z,22.87
2022-10-01T02:34:12.213Z,20.63
2022-10-01T02:36:41.654Z,21.67
2022-10-01T02:39:10.461Z,23.90
2022-10-01T02:41:37.563Z,24.30
2022-10-01T02:44:15.432Z,22.70
2022-10-01T02:47:02.794Z,24.07
2022-10-01T02:49:31.380Z,24.30
2022-10-01T02:52:08.077Z,23.67
2022-10-01T02:54:45.036Z,23.30
2022-10-01T02:57:23.039Z,24.80
2022-10-01T02:59:51.383Z,24.73
2022-10-01T03:02:19.332Z,24.53
2022-10-01T03:04:48.160Z,24.50
2022-10-01T03:07:16.801Z,24.40
2022-10-01T03:09:43.707Z,24.40
2022-10-01T03:12:10.940Z,24.70
2022-10-01T03:14:39.363Z,24.23
2022-10-01T03:17:07.307Z,24.30
2022-10-01T03:19:34.179Z,25.33
2022-10-01T03:22:01.393Z,22.80
2022-10-01T03:24:28.362Z,23.20
2022-10-01T03:26:58.560Z,24.07
2022-10-01T03:29:26.357Z,23.27
2022-10-01T03:31:53.949Z,24.67
2022-10-01T03:34:21.040Z,23.20
2022-10-01T03:36:48.576Z,23.80
2022-10-01T03:39:15.438Z,21.77
2022-10-01T03:41:42.252Z,21.27
2022-10-01T03:44:09.079Z,20.97
2022-10-01T03:46:36.385Z,24.20
2022-10-01T03:49:03.954Z,22.70
2022-10-01T03:51:31.987Z,23.17
2022-10-01T03:53:59.660Z,24.20
2022-10-01T03:56:26.515Z,21.53
2022-10-01T03:58:53.601Z,22.67
2022-10-01T04:01:20.654Z,22.73
2022-10-01T04:03:49.373Z,22.97
2022-10-01T04:06:16.747Z,22.53
2022-10-01T04:08:43.676Z,24.60
2022-10-01T04:11:10.728Z,22.47
2022-10-01T04:13:37.679Z,21.87
2022-10-01T04:16:05.654Z,22.97
2022-10-01T04:18:32.822Z,22.67
2022-10-01T04:20:59.841Z,21.37
2022-10-01T04:23:27.117Z,21.50
2022-10-01T04:25:54.265Z,22.57
2022-10-01T04:28:21.308Z,22.40
2022-10-01T04:30:48.169Z,20.40
2022-10-01T04:33:16.810Z,21.70
2022-10-01T04:35:44.306Z,21.20
2022-10-01T04:38:16.751Z,21.60
2022-10-01T04:40:43.799Z,22.43
2022-10-01T04:43:13.353Z,22.10
2022-10-01T04:45:40.412Z,21.90
2022-10-01T04:48:07.223Z,23.87
2022-10-01T04:50:34.166Z,24.03
2022-10-01T04:53:01.371Z,22.47
2022-10-01T04:55:28.227Z,21.97
2022-10-01T04:57:55.104Z,21.10
2022-10-01T05:00:26.594Z,21.77
2022-10-01T05:02:54.309Z,22.30
2022-10-01T05:05:23.923Z,23.03
2022-10-01T05:07:51.034Z,25.60
2022-10-01T05:10:20.421Z,23.60
2022-10-01T05:12:48.109Z,23.97
2022-10-01T05:15:16.580Z,23.60
2022-10-01T05:17:43.429Z,23.00
2022-10-01T05:20:19.989Z,22.93
2022-10-01T05:22:47.624Z,20.57
2022-10-01T05:25:14.868Z,22.20
2022-10-01T05:27:42.177Z,21.97
2022-10-01T05:30:10.648Z,21.90
2022-10-01T05:32:37.930Z,21.73
2022-10-01T05:35:07.140Z,22.63
2022-10-01T05:37:34.643Z,24.60
2022-10-01T05:40:01.947Z,22.90
2022-10-01T05:42:28.925Z,22.70
2022-10-01T05:44:56.161Z,23.77
2022-10-01T05:47:23.290Z,24.13
2022-10-01T05:49:50.092Z,24.77
2022-10-01T05:52:17.303Z,23.63
2022-10-01T05:54:44.169Z,21.10
2022-10-01T05:57:11.239Z,21.67
2022-10-01T05:59:38.041Z,22.57
2022-10-01T06:02:04.889Z,24.60
2022-10-01T06:04:31.842Z,23.03
2022-10-01T06:06:58.958Z,24.87
2022-10-01T06:09:25.834Z,24.83
2022-10-01T06:11:52.721Z,24.10
2022-10-01T06:14:19.576Z,23.50
2022-10-01T06:16:47.100Z,24.33
2022-10-01T06:19:13.984Z,25.37
2022-10-01T06:21:40.840Z,25.93
2022-10-01T06:24:07.616Z,24.30
2022-10-01T06:26:34.495Z,24.47
2022-10-01T06:29:02.831Z,25.60
2022-10-01T06:31:29.970Z,24.93
2022-10-01T06:33:56.819Z,23.17
2022-10-01T06:36:23.710Z,24.87
2022-10-01T06:38:50.534Z,24.53
2022-10-01T06:41:17.349Z,25.37
2022-10-01T06:43:44.178Z,23.47
2022-10-01T06:46:11.330Z,24.30
2022-10-01T06:48:38.218Z,24.83
2022-10-01T06:51:05.829Z,21.60
2022-10-01T06:53:32.699Z,25.10
2022-10-01T06:56:07.845Z,22.67
2022-10-01T06:58:35.108Z,23.87
2022-10-01T07:01:03.840Z,23.10
2022-10-01T07:03:31.616Z,22.23
2022-10-01T07:06:09.054Z,22.67
2022-10-01T07:08:35.817Z,21.60
2022-10-01T07:11:03.370Z,21.93
2022-10-01T07:13:30.797Z,19.20
2022-10-01T07:15:57.618Z,19.17
2022-10-01T07:18:24.508Z,18.43
2022-10-01T07:20:51.304Z,17.70
2022-10-01T07:23:18.115Z,16.70
2022-10-01T07:25:45.310Z,17.17
2022-10-01T07:28:19.016Z,16.80
2022-10-01T07:31:06.678Z,16.17
2022-10-01T07:33:33.837Z,16.80
2022-10-01T07:36:02.210Z,17.53
2022-10-01T07:38:29.260Z,17.50
2022-10-01T07:40:56.208Z,16.97
2022-10-01T07:43:23.025Z,17.77
2022-10-01T07:45:55.293Z,15.30
2022-10-01T07:48:22.192Z,17.07
2022-10-01T07:50:52.118Z,17.90
2022-10-01T07:53:19.482Z,18.80
2022-10-01T07:55:46.567Z,16.93
2022-10-01T07:58:13.703Z,17.80
2022-10-01T08:00:40.558Z,16.70
2022-10-01T08:03:07.477Z,17.17
2022-10-01T08:05:35.912Z,17.50
2022-10-01T08:08:05.646Z,16.87
2022-10-01T08:10:36.662Z,16.53
2022-10-01T08:13:17.555Z,17.40
2022-10-01T08:15:49.220Z,18.13
2022-10-01T08:18:16.141Z,18.77
2022-10-01T08:20:43.024Z,18.03
2022-10-01T08:23:11.737Z,17.70
2022-10-01T08:25:39.876Z,19.87
2022-10-01T08:28:08.561Z,20.50
2022-10-01T08:30:37.652Z,19.07
2022-10-01T08:33:04.507Z,19.13
2022-10-01T08:35:31.592Z,18.23
2022-10-01T08:38:02.797Z,17.87
2022-10-01T08:40:30.485Z,18.60
2022-10-01T08:43:06.340Z,19.13
2022-10-01T08:45:44.994Z,19.50
2022-10-01T08:48:31.096Z,18.57
2022-10-01T08:51:08.042Z,16.03
2022-10-01T08:53:53.226Z,18.00
2022-10-01T08:56:29.335Z,18.47
2022-10-01T08:59:03.765Z,17.50
2022-10-01T09:01:31.402Z,18.67
2022-10-01T09:03:59.619Z,17.67
2022-10-01T09:06:27.873Z,16.97
2022-10-01T09:09:25.579Z,17.17
2022-10-01T09:12:09.800Z,18.17
2022-10-01T09:14:45.539Z,19.07
2022-10-01T09:17:41.683Z,17.80
2022-10-01T09:20:19.359Z,17.27
2022-10-01T09:23:08.075Z,15.73
2022-10-01T09:25:38.980Z,14.20
2022-10-01T09:28:20.973Z,14.57
2022-10-01T09:31:18.279Z,14.47
2022-10-01T09:33:55.748Z,14.63
2022-10-01T09:36:33.610Z,15.00
2022-10-01T09:39:25.659Z,13.10
2022-10-01T09:41:52.604Z,14.17
2022-10-01T09:44:28.555Z,12.13
2022-10-01T09:46:55.529Z,14.17
2022-10-01T09:49:45.626Z,14.43
2022-10-01T09:52:15.936Z,14.07
2022-10-01T09:54:52.667Z,16.37
2022-10-01T09:57:26.587Z,15.40
2022-10-01T10:00:11.906Z,14.47
2022-10-01T10:02:48.192Z,16.43
2022-10-01T10:05:40.588Z,15.77
2022-10-01T10:08:20.605Z,15.07
2022-10-01T10:11:08.693Z,15.90
2022-10-01T10:13:50.527Z,16.00
2022-10-01T10:16:26.313Z,14.60
2022-10-01T10:19:24.395Z,15.07
2022-10-01T10:21:57.570Z,16.30
2022-10-01T10:24:35.079Z,16.10
2022-10-01T10:27:04.491Z,16.50
2022-10-01T10:29:32.649Z,15.53
2022-10-01T10:32:04.221Z,15.10
2022-10-01T10:34:35.457Z,15.60
2022-10-01T10:37:07.012Z,16.57
2022-10-01T10:39:40.140Z,16.27
2022-10-01T10:42:08.461Z,13.87
2022-10-01T10:44:39.843Z,13.30
2022-10-01T10:47:11.345Z,14.47
2022-10-01T10:50:00.464Z,14.10
2022-10-01T10:52:30.105Z,13.23
2022-10-01T10:54:59.100Z,13.40
2022-10-01T10:57:30.210Z,13.53
2022-10-01T10:59:58.798Z,14.07
2022-10-01T11:02:31.261Z,13.20
2022-10-01T11:05:02.123Z,14.00
2022-10-01T11:07:29.869Z,15.50
2022-10-01T11:09:56.722Z,14.13
2022-10-01T11:12:33.298Z,12.40
2022-10-01T11:15:03.324Z,12.60
2022-10-01T11:17:45.214Z,12.30
2022-10-01T11:20:34.054Z,9.63
2022-10-01T11:23:34.035Z,9.70
2022-10-01T11:26:38.196Z,8.47
2022-10-01T11:29:33.076Z,8.13
2022-10-01T11:32:19.435Z,8.20
2022-10-01T11:35:12.888Z,7.97
2022-10-01T11:38:20.231Z,7.57
2022-10-01T11:40:51.141Z,8.20
2022-10-01T11:43:27.920Z,7.70
2022-10-01T11:46:01.759Z,8.47
2022-10-01T11:48:57.393Z,8.07
2022-10-01T11:51:32.066Z,6.40
2022-10-01T11:54:06.853Z,5.90
2022-10-01T11:56:58.935Z,5.57
2022-10-01T11:59:33.862Z,4.93
2022-10-01T12:02:31.706Z,5.97
2022-10-01T12:05:03.066Z,6.63
2022-10-01T12:07:51.204Z,7.10
2022-10-01T12:10:40.086Z,6.67
2022-10-01T12:13:32.645Z,6.23
2022-10-01T12:16:23.861Z,7.00
2022-10-01T12:19:12.740Z,6.20
2022-10-01T12:22:02.432Z,5.10
2022-10-01T12:24:36.612Z,4.50
2022-10-01T12:27:34.748Z,5.17
2022-10-01T12:30:16.473Z,4.33
2022-10-01T12:33:04.966Z,4.57
2022-10-01T12:35:43.994Z,4.37
2022-10-01T12:38:39.821Z,3.97
2022-10-01T12:41:15.259Z,4.20
2022-10-01T12:43:50.880Z,3.67
2022-10-01T12:46:51.705Z,3.50
2022-10-01T12:49:27.327Z,3.93
2022-10-01T12:51:59.695Z,4.40
2022-10-01T12:54:35.776Z,3.80
2022-10-01T12:57:39.983Z,3.70
2022-10-01T13:00:16.739Z,3.00
2022-10-01T13:03:37.873Z,3.30
2022-10-01T13:06:39.862Z,3.90
2022-10-01T13:09:37.198Z,3.57
2022-10-01T13:12:13.182Z,3.80
2022-10-01T13:14:44.492Z,3.90
2022-10-01T13:17:37.568Z,3.60
2022-10-01T13:20:21.274Z,4.10
2022-10-01T13:23:00.772Z,3.80
2022-10-01T13:25:38.137Z,3.73
2022-10-01T13:28:13.205Z,4.67
2022-10-01T13:30:52.817Z,4.30
2022-10-01T13:33:32.171Z,3.97
2022-10-01T13:36:01.123Z,4.20
2022-10-01T13:38:44.092Z,4.23
2022-10-01T13:41:31.780Z,4.80
2022-10-01T13:44:23.356Z,4.10
2022-10-01T13:47:13.241Z,4.67
2022-10-01T13:49:42.915Z,4.97
2022-10-01T13:52:20.012Z,4.57
2022-10-01T13:54:55.943Z,4.67
2022-10-01T13:57:22.688Z,5.00
2022-10-01T14:00:18.444Z,4.87
2022-10-01T14:03:17.809Z,5.20
2022-10-01T14:05:45.101Z,5.40
2022-10-01T14:08:25.172Z,5.97
2022-10-01T14:11:19.628Z,5.23
2022-10-01T14:14:07.990Z,6.20
2022-10-01T14:16:47.157Z,6.23
2022-10-01T14:19:23.764Z,6.87
2022-10-01T14:22:19.489Z,6.80
2022-10-01T14:25:20.949Z,6.60
2022-10-01T14:28:10.826Z,5.87
2022-10-01T14:30:51.991Z,6.77
2022-10-01T14:33:18.788Z,6.60
2022-10-01T14:36:00.192Z,6.67
2022-10-01T14:38:27.184Z,7.57
2022-10-01T14:40:54.283Z,7.03
2022-10-01T14:43:26.171Z,7.63
2022-10-01T14:46:11.775Z,7.30
2022-10-01T14:48:40.311Z,8.10
2022-10-01T14:51:25.629Z,8.60
2022-10-01T14:53:54.977Z,9.10
2022-10-01T14:56:22.948Z,8.67
2022-10-01T14:58:58.137Z,9.10
2022-10-01T15:01:25.898Z,8.93
2022-10-01T15:03:53.103Z,8.30
2022-10-01T15:06:27.698Z,9.40
2022-10-01T15:08:56.219Z,10.30
2022-10-01T15:11:26.077Z,10.60
2022-10-01T15:14:04.808Z,11.77
2022-10-01T15:16:33.404Z,13.03
2022-10-01T15:19:06.440Z,11.07
2022-10-01T15:21:41.675Z,11.17
2022-10-01T15:24:26.332Z,11.17
2022-10-01T15:26:55.596Z,10.47
2022-10-01T15:29:22.855Z,11.10
2022-10-01T15:31:51.685Z,13.50
2022-10-01T15:34:21.180Z,12.83
2022-10-01T15:36:49.344Z,12.53
2022-10-01T15:39:28.075Z,14.70
2022-10-01T15:41:56.864Z,13.60
2022-10-01T15:44:42.844Z,13.90
2022-10-01T15:47:34.022Z,13.17
2022-10-01T15:50:15.302Z,12.50
2022-10-01T15:52:51.332Z,12.40
2022-10-01T15:55:40.309Z,13.63
2022-10-01T15:58:14.180Z,11.30
2022-10-01T16:00:47.605Z,11.37
2022-10-01T16:03:19.972Z,10.43
2022-10-01T16:05:48.377Z,11.47
2022-10-01T16:08:21.940Z,9.90
2022-10-01T16:11:13.612Z,10.30
2022-10-01T16:13:45.381Z,9.00
2022-10-01T16:16:28.385Z,9.80
2022-10-01T16:18:59.841Z,10.47
2022-10-01T16:21:27.287Z,10.70
2022-10-01T16:23:56.020Z,9.70
2022-10-01T16:26:32.473Z,10.53
2022-10-01T16:29:18.493Z,11.17
2022-10-01T16:31:45.754Z,11.50
2022-10-01T16:34:17.305Z,11.20
2022-10-01T16:36:44.640Z,10.90
2022-10-01T16:39:15.521Z,10.93
2022-10-01T16:41:44.204Z,10.90
2022-10-01T16:44:13.735Z,11.20
2022-10-01T16:46:41.085Z,11.93
2022-10-01T16:49:15.699Z,11.30
2022-10-01T16:51:42.905Z,12.07
2022-10-01T16:54:36.047Z,12.00
2022-10-01T16:57:02.866Z,12.00
2022-10-01T16:59:29.962Z,11.53
2022-10-01T17:01:57.504Z,11.03
2022-10-01T17:04:29.301Z,10.40
2022-10-01T17:06:58.429Z,12.33
2022-10-01T17:09:25.224Z,11.47
2022-10-01T17:11:52.995Z,12.50
2022-10-01T17:14:21.260Z,11.73
2022-10-01T17:16:50.600Z,12.13
2022-10-01T17:19:21.874Z,11.30
2022-10-01T17:21:48.676Z,14.20
2022-10-01T17:24:15.477Z,14.27
2022-10-01T17:26:45.318Z,15.93
2022-10-01T17:29:12.341Z,14.10
2022-10-01T17:31:46.482Z,13.60
2022-10-01T17:34:13.409Z,13.77
2022-10-01T17:36:40.389Z,12.87
2022-10-01T17:39:07.262Z,13.53
2022-10-01T17:41:34.114Z,13.93
2022-10-01T17:44:01.119Z,14.17
2022-10-01T17:46:29.717Z,16.07
2022-10-01T17:48:56.512Z,15.90
2022-10-01T17:51:23.873Z,15.77
2022-10-01T17:53:51.139Z,15.97
2022-10-01T17:56:19.186Z,16.03
2022-10-01T17:58:46.860Z,16.00
2022-10-01T18:01:16.423Z,14.30
2022-10-01T18:03:43.574Z,14.40
2022-10-01T18:06:13.826Z,14.80
2022-10-01T18:08:54.735Z,14.87
2022-10-01T18:11:22.941Z,14.07
2022-10-01T18:13:50.859Z,13.80
2022-10-01T18:16:19.421Z,14.73
2022-10-01T18:21:33.538Z,16.23
2022-10-01T18:24:04.252Z,14.80
2022-10-01T18:26:31.929Z,15.10
2022-10-01T18:28:58.829Z,14.17
2022-10-01T18:31:29.185Z,14.57
2022-10-01T18:34:01.338Z,15.10
2022-10-01T18:36:53.660Z,15.87
2022-10-01T18:39:43.253Z,14.77
2022-10-01T18:42:24.747Z,15.40
2022-10-01T18:44:57.617Z,15.40
2022-10-01T18:47:46.107Z,15.50
2022-10-01T18:50:48.253Z,15.17
2022-10-01T18:53:34.694Z,16.70
2022-10-01T18:56:18.552Z,14.73
2022-10-01T18:58:51.560Z,15.57
2022-10-01T19:01:49.048Z,18.10
2022-10-01T19:04:31.194Z,18.40
2022-10-01T19:07:03.892Z,17.57
2022-10-01T19:09:51.972Z,16.90
2022-10-01T19:12:37.703Z,18.43
2022-10-01T19:15:40.245Z,17.13
2022-10-01T19:18:25.404Z,18.27
2022-10-01T19:21:15.143Z,18.53
2022-10-01T19:23:44.776Z,18.33
2022-10-01T19:26:19.294Z,17.57
2022-10-01T19:28:58.107Z,17.30
2022-10-01T19:31:27.707Z,20.13
2022-10-01T19:34:02.284Z,19.50
2022-10-01T19:36:35.864Z,17.83
2022-10-01T19:39:09.526Z,18.83
2022-10-01T19:41:51.377Z,18.70
2022-10-01T19:44:26.295Z,19.60
2022-10-01T19:47:00.025Z,22.50
2022-10-01T19:49:37.040Z,20.10
2022-10-01T19:52:12.177Z,20.17
2022-10-01T19:54:46.938Z,21.93
2022-10-01T19:57:28.869Z,23.93
2022-10-01T19:59:58.558Z,23.77
2022-10-01T20:03:00.683Z,23.00
2022-10-01T20:05:30.345Z,20.10
2022-10-01T20:08:07.982Z,22.20
2022-10-01T20:10:48.800Z,20.77
2022-10-01T20:13:34.609Z,21.30
2022-10-01T20:16:36.357Z,21.90
2022-10-01T20:19:28.559Z,21.67
2022-10-01T20:22:26.663Z,22.13
2022-10-01T20:25:12.600Z,22.10
2022-10-01T20:28:05.722Z,23.27
2022-10-01T20:30:44.899Z,21.77
2022-10-01T20:33:56.216Z,23.07
2022-10-01T20:36:45.945Z,21.73
2022-10-01T20:39:16.343Z,22.87
2022-10-01T20:41:49.506Z,23.03
2022-10-01T20:44:27.080Z,21.67
2022-10-01T20:47:01.163Z,21.73
2022-10-01T20:49:53.240Z,23.40
2022-10-01T20:52:40.861Z,20.00
2022-10-01T20:55:13.860Z,21.60
2022-10-01T20:57:50.766Z,21.60
2022-10-01T21:00:21.126Z,20.63
2022-10-01T21:03:02.227Z,20.77
2022-10-01T21:05:43.405Z,20.90
2022-10-01T21:08:29.139Z,22.27
2022-10-01T21:11:03.972Z,20.40
2022-10-01T21:13:31.784Z,20.93
2022-10-01T21:16:20.406Z,20.43
2022-10-01T21:19:28.735Z,21.70
2022-10-01T21:22:17.178Z,21.13
2022-10-01T21:24:59.785Z,21.27
2022-10-01T21:27:51.579Z,20.77
2022-10-01T21:30:21.059Z,21.47
2022-10-01T21:33:09.843Z,18.47
2022-10-01T21:35:56.913Z,19.47
2022-10-01T21:38:45.461Z,18.10
2022-10-01T21:41:48.325Z,16.43
2022-10-01T21:44:27.496Z,15.50
2022-10-01T21:47:33.800Z,17.40
2022-10-01T21:50:14.228Z,15.50
2022-10-01T21:53:19.886Z,15.60
2022-10-01T21:56:38.425Z,13.10
2022-10-01T21:59:08.617Z,13.53
2022-10-01T22:02:03.777Z,13.20
2022-10-01T22:04:39.866Z,12.70
2022-10-01T22:07:24.079Z,13.23
2022-10-01T22:10:00.147Z,12.67
2022-10-01T22:12:30.085Z,13.10
2022-10-01T22:14:58.568Z,11.47
2022-10-01T22:17:33.187Z,9.20
2022-10-01T22:20:03.934Z,9.50
2022-10-01T22:22:38.215Z,9.90
2022-10-01T22:25:06.808Z,9.93
2022-10-01T22:27:45.428Z,8.37
2022-10-01T22:30:16.704Z,8.10
2022-10-01T22:32:49.598Z,8.30
2022-10-01T22:35:32.469Z,8.33
2022-10-01T22:38:07.252Z,8.23
2022-10-01T22:40:40.447Z,7.63
2022-10-01T22:43:11.205Z,6.90
2022-10-01T22:46:10.114Z,6.40
2022-10-01T22:49:14.728Z,6.70
2022-10-01T22:52:05.501Z,6.30
2022-10-01T22:54:41.844Z,5.77
2022-10-01T22:57:11.370Z,5.90
2022-10-01T23:00:05.608Z,5.90
2022-10-01T23:03:08.702Z,5.67
2022-10-01T23:05:59.601Z,5.50
2022-10-01T23:08:33.064Z,5.87
2022-10-01T23:11:18.128Z,5.33
2022-10-01T23:14:19.572Z,5.30
2022-10-01T23:17:02.164Z,5.80
2022-10-01T23:19:53.890Z,4.70
2022-10-01T23:22:47.020Z,5.10
2022-10-01T23:25:32.215Z,5.10
2022-10-01T23:28:19.317Z,4.87
2022-10-01T23:31:04.941Z,5.50
2022-10-01T23:33:49.666Z,5.00
2022-10-01T23:36:45.788Z,5.40
2022-10-01T23:39:37.178Z,5.40
2022-10-01T23:42:22.745Z,4.70
2022-10-01T23:45:02.584Z,5.80
2022-10-01T23:47:42.352Z,4.73
2022-10-01T23:50:20.804Z,4.17
2022-10-01T23:53:15.359Z,5.30
2022-10-01T23:56:06.352Z,4.93
2022-10-01T23:58:40.608Z,4.30
